Terminal Aerodrome Forecast
Issued by NWS

Home | Current Version | Previous Version | Text Only | Print | Product List | Glossary On
Versions: 1 2 3 4 5 6 7 8 9 10 11 12 13 14 15 16
000
FTUS42 KMLB 290527
TAFFPR
TAF
KFPR 290527Z 2906/3006 00000KT P6SM FEW050
     FM291400 VRB04KT P6SM SCT030
     FM291700 07008KT P6SM VCSH SCT040=

USA.gov is the U.S. government's official web portal to all federal, state and local government web resources and services.